createdAt,value
2022-12-31T00:02:34.326Z,15.60
2022-12-31T00:05:36.584Z,17.50
2022-12-31T00:08:38.216Z,14.90
2022-12-31T00:11:40.010Z,14.10
2022-12-31T00:14:41.557Z,15.50
2022-12-31T00:17:43.086Z,17.40
2022-12-31T00:20:44.702Z,14.20
2022-12-31T00:23:46.859Z,14.30
2022-12-31T00:26:48.386Z,17.20
2022-12-31T00:29:49.955Z,18.10
2022-12-31T00:32:51.531Z,15.10
2022-12-31T00:35:53.114Z,15.30
2022-12-31T00:38:55.318Z,14.80
2022-12-31T00:41:56.883Z,14.40
2022-12-31T00:44:58.475Z,16.10
2022-12-31T00:48:00.121Z,13.80
2022-12-31T00:51:02.470Z,14.00
2022-12-31T00:54:04.066Z,16.10
2022-12-31T00:57:05.577Z,13.00
2022-12-31T01:00:08.958Z,14.90
2022-12-31T01:03:10.549Z,12.70
2022-12-31T01:06:12.501Z,12.60
2022-12-31T01:09:15.330Z,15.60
2022-12-31T01:12:16.882Z,11.70
2022-12-31T01:15:18.426Z,13.30
2022-12-31T01:18:19.999Z,16.80
2022-12-31T01:21:22.210Z,13.70
2022-12-31T01:24:24.054Z,14.30
2022-12-31T01:27:25.605Z,13.80
2022-12-31T01:30:27.282Z,15.70
2022-12-31T01:33:28.844Z,13.70
2022-12-31T01:36:31.401Z,16.40
2022-12-31T01:39:32.963Z,17.30
2022-12-31T01:42:34.526Z,15.40
2022-12-31T01:45:36.035Z,14.70
2022-12-31T01:48:37.576Z,17.00
2022-12-31T01:51:40.601Z,18.20
2022-12-31T01:54:48.837Z,21.30
2022-12-31T01:57:53.252Z,19.80
2022-12-31T02:03:56.979Z,16.00
2022-12-31T02:07:00.441Z,12.60
2022-12-31T02:10:02.003Z,15.20
2022-12-31T02:13:03.890Z,13.50
2022-12-31T02:16:12.853Z,13.80
2022-12-31T02:19:32.964Z,13.70
2022-12-31T02:22:53.331Z,14.10
2022-12-31T02:26:00.906Z,12.70
2022-12-31T02:29:05.602Z,13.10
2022-12-31T02:32:07.168Z,14.80
2022-12-31T02:35:15.016Z,14.20
2022-12-31T02:38:27.579Z,14.50
2022-12-31T02:41:47.543Z,15.40
2022-12-31T02:44:49.094Z,12.90
2022-12-31T02:48:10.920Z,15.80
2022-12-31T02:51:19.137Z,16.40
2022-12-31T02:54:29.878Z,14.50
2022-12-31T02:57:47.524Z,15.40
2022-12-31T03:01:10.585Z,18.50
2022-12-31T03:04:31.839Z,16.30
2022-12-31T03:07:33.418Z,15.80
2022-12-31T03:10:35.475Z,18.40
2022-12-31T03:13:37.121Z,15.50
2022-12-31T03:16:38.697Z,14.60
2022-12-31T03:19:58.987Z,13.30
2022-12-31T03:23:00.719Z,16.20
2022-12-31T03:26:04.057Z,18.20
2022-12-31T03:29:05.610Z,15.00
2022-12-31T03:32:07.103Z,16.90
2022-12-31T03:35:09.261Z,16.70
2022-12-31T03:38:10.985Z,19.10
2022-12-31T03:41:12.599Z,18.50
2022-12-31T03:44:14.192Z,17.40
2022-12-31T03:47:15.831Z,19.80
2022-12-31T03:50:18.556Z,17.60
2022-12-31T03:53:20.240Z,18.50
2022-12-31T03:56:21.818Z,18.70
2022-12-31T03:59:23.472Z,17.40
2022-12-31T04:02:28.907Z,19.60
2022-12-31T04:05:31.376Z,19.30
2022-12-31T04:08:32.940Z,23.90
2022-12-31T04:11:34.516Z,22.70
2022-12-31T04:14:36.198Z,20.70
2022-12-31T04:17:37.981Z,24.10
2022-12-31T04:20:39.599Z,23.20
2022-12-31T04:23:41.139Z,23.80
2022-12-31T04:26:44.102Z,23.70
2022-12-31T04:29:45.743Z,25.60
2022-12-31T04:32:47.303Z,24.60
2022-12-31T04:35:48.790Z,24.90
2022-12-31T04:38:50.332Z,23.30
2022-12-31T04:41:52.161Z,25.20
2022-12-31T04:44:53.688Z,24.90
2022-12-31T04:47:55.279Z,24.20
2022-12-31T04:50:56.796Z,22.70
2022-12-31T04:53:58.990Z,21.80
2022-12-31T04:57:00.658Z,24.30
2022-12-31T05:00:02.296Z,23.60
2022-12-31T05:03:03.897Z,25.90
2022-12-31T05:06:07.054Z,22.70
2022-12-31T05:09:08.667Z,19.60
2022-12-31T05:12:10.219Z,21.90
2022-12-31T05:15:11.781Z,17.80
2022-12-31T05:18:13.374Z,17.90
2022-12-31T05:21:17.973Z,17.50
2022-12-31T05:24:19.518Z,17.20
2022-12-31T05:27:21.408Z,18.70
2022-12-31T05:30:23.514Z,18.20
2022-12-31T05:33:25.185Z,18.40
2022-12-31T05:36:26.770Z,19.80
2022-12-31T05:39:28.300Z,17.20
2022-12-31T05:42:29.937Z,19.50
2022-12-31T05:45:31.631Z,14.80
2022-12-31T05:48:33.262Z,19.60
2022-12-31T05:51:34.860Z,19.30
2022-12-31T05:54:36.639Z,18.30
2022-12-31T05:57:38.350Z,18.80
2022-12-31T06:00:41.156Z,15.70
2022-12-31T06:03:42.721Z,19.80
2022-12-31T06:06:44.323Z,20.60
2022-12-31T06:09:45.942Z,17.50
2022-12-31T06:12:47.492Z,15.30
2022-12-31T06:15:49.034Z,16.30
2022-12-31T06:18:50.947Z,18.20
2022-12-31T06:21:52.481Z,16.20
2022-12-31T06:24:54.365Z,17.20
2022-12-31T06:27:56.003Z,20.40
2022-12-31T06:31:01.371Z,21.00
2022-12-31T06:34:03.038Z,20.00
2022-12-31T06:37:04.705Z,20.80
2022-12-31T06:40:06.690Z,22.20
2022-12-31T06:43:08.241Z,21.80
2022-12-31T06:46:11.220Z,17.70
2022-12-31T06:49:12.818Z,19.60
2022-12-31T06:52:14.378Z,20.10
2022-12-31T06:55:16.293Z,22.40
2022-12-31T06:58:18.088Z,22.70
2022-12-31T07:01:31.774Z,22.70
2022-12-31T07:04:48.464Z,19.80
2022-12-31T07:07:58.468Z,18.40
2022-12-31T07:11:04.365Z,15.90
2022-12-31T07:14:08.862Z,18.10
2022-12-31T07:17:30.682Z,17.30
2022-12-31T07:20:32.397Z,18.20
2022-12-31T07:23:34.080Z,23.00
2022-12-31T07:26:54.235Z,17.30
2022-12-31T07:30:00.489Z,19.70
2022-12-31T07:33:15.313Z,19.20
2022-12-31T07:36:16.820Z,19.40
2022-12-31T07:39:44.806Z,21.00
2022-12-31T07:43:12.683Z,19.10
2022-12-31T07:46:22.404Z,17.10
2022-12-31T07:49:25.022Z,17.80
2022-12-31T07:52:26.808Z,19.30
2022-12-31T07:55:28.349Z,20.10
2022-12-31T07:58:48.336Z,16.40
2022-12-31T08:02:04.904Z,17.10
2022-12-31T08:05:18.379Z,24.10
2022-12-31T08:08:35.384Z,29.70
2022-12-31T08:11:48.296Z,31.70
2022-12-31T08:14:50.048Z,27.40
2022-12-31T08:17:51.684Z,26.30
2022-12-31T08:21:02.372Z,18.00
2022-12-31T08:24:03.906Z,19.90
2022-12-31T08:27:12.080Z,19.50
2022-12-31T08:30:15.290Z,30.00
2022-12-31T08:33:22.190Z,23.70
2022-12-31T08:36:47.042Z,23.10
2022-12-31T08:40:10.400Z,22.50
2022-12-31T08:43:15.509Z,20.90
2022-12-31T08:46:23.563Z,23.60
2022-12-31T08:49:29.289Z,20.70
2022-12-31T08:52:31.059Z,21.90
2022-12-31T08:55:32.798Z,23.30
2022-12-31T08:58:43.013Z,25.50
2022-12-31T09:01:57.235Z,24.50
2022-12-31T09:05:01.754Z,25.30
2022-12-31T09:08:09.187Z,18.80
2022-12-31T09:11:17.703Z,21.70
2022-12-31T09:14:31.742Z,22.50
2022-12-31T09:17:36.136Z,25.40
2022-12-31T09:20:45.132Z,21.30
2022-12-31T09:23:46.917Z,24.30
2022-12-31T09:26:57.006Z,21.10
2022-12-31T09:30:04.057Z,22.30
2022-12-31T09:33:05.603Z,24.00
2022-12-31T09:36:08.900Z,22.10
2022-12-31T09:39:13.830Z,24.50
2022-12-31T09:42:38.909Z,25.80
2022-12-31T09:45:45.016Z,27.30
2022-12-31T09:48:56.778Z,26.70
2022-12-31T09:52:01.480Z,26.50
2022-12-31T09:55:12.221Z,26.70
2022-12-31T09:58:32.585Z,23.00
2022-12-31T10:01:46.256Z,27.10
2022-12-31T10:05:03.903Z,27.90
2022-12-31T10:08:18.905Z,24.80
2022-12-31T10:11:34.209Z,25.60
2022-12-31T10:14:47.866Z,26.20
2022-12-31T10:18:09.441Z,29.80
2022-12-31T10:21:28.485Z,27.50
2022-12-31T10:24:42.261Z,32.00
2022-12-31T10:28:07.140Z,25.90
2022-12-31T10:31:41.260Z,28.70
2022-12-31T10:35:01.003Z,25.70
2022-12-31T10:38:28.880Z,25.90
2022-12-31T10:41:33.440Z,26.00
2022-12-31T10:44:44.043Z,26.50
2022-12-31T10:47:53.572Z,24.80
2022-12-31T10:51:02.708Z,28.10
2022-12-31T10:54:23.021Z,23.90
2022-12-31T10:57:44.835Z,27.80
2022-12-31T11:00:46.452Z,27.20
2022-12-31T11:04:07.015Z,23.10
2022-12-31T11:07:28.874Z,24.10
2022-12-31T11:10:42.660Z,24.60
2022-12-31T11:14:04.290Z,24.40
2022-12-31T11:17:29.244Z,25.40
2022-12-31T11:20:33.652Z,22.70
2022-12-31T11:23:35.179Z,25.60
2022-12-31T11:26:45.576Z,24.70
2022-12-31T11:33:06.835Z,25.00
2022-12-31T11:36:11.447Z,22.50
2022-12-31T11:39:30.748Z,25.50
2022-12-31T11:42:38.971Z,24.60
2022-12-31T11:45:53.971Z,22.70
2022-12-31T11:49:07.522Z,24.30
2022-12-31T11:52:27.994Z,25.20
2022-12-31T11:55:33.035Z,23.00
2022-12-31T11:58:34.604Z,23.20
2022-12-31T12:01:56.492Z,23.70
2022-12-31T12:05:03.701Z,25.50
2022-12-31T12:08:10.332Z,23.90
2022-12-31T12:11:23.948Z,23.50
2022-12-31T12:14:31.328Z,23.80
2022-12-31T12:17:34.220Z,22.60
2022-12-31T12:20:37.225Z,23.30
2022-12-31T12:23:39.630Z,24.80
2022-12-31T12:26:42.249Z,23.70
2022-12-31T12:29:43.787Z,23.60
2022-12-31T12:32:56.087Z,25.50
2022-12-31T12:36:07.626Z,27.10
2022-12-31T12:39:18.919Z,25.20
2022-12-31T12:42:20.483Z,25.90
2022-12-31T12:45:23.623Z,26.90
2022-12-31T12:48:30.888Z,23.40
2022-12-31T12:51:51.400Z,25.20
2022-12-31T12:54:52.947Z,23.30
2022-12-31T12:58:00.535Z,24.70
2022-12-31T13:01:05.226Z,29.90
2022-12-31T13:04:34.109Z,29.40
2022-12-31T13:07:41.944Z,29.10
2022-12-31T13:10:59.986Z,29.10
2022-12-31T13:14:01.621Z,30.40
2022-12-31T13:17:06.482Z,30.70
2022-12-31T13:20:24.163Z,27.60
2022-12-31T13:26:30.271Z,26.90
2022-12-31T13:29:33.557Z,25.90
2022-12-31T13:32:39.349Z,32.80
2022-12-31T13:35:49.161Z,26.00
2022-12-31T13:38:54.978Z,27.20
2022-12-31T13:42:00.588Z,26.90
2022-12-31T13:45:10.759Z,29.90
2022-12-31T13:48:16.575Z,27.90
2022-12-31T13:51:38.678Z,29.50
2022-12-31T13:54:45.676Z,32.00
2022-12-31T13:57:50.892Z,30.60
2022-12-31T14:00:58.962Z,30.70
2022-12-31T14:04:00.739Z,31.00
2022-12-31T14:07:15.337Z,29.10
2022-12-31T14:10:21.354Z,27.80
2022-12-31T14:13:39.546Z,31.30
2022-12-31T14:16:47.766Z,32.40
2022-12-31T14:20:15.895Z,27.90
2022-12-31T14:23:36.548Z,33.80
2022-12-31T14:26:42.028Z,32.40
2022-12-31T14:29:46.672Z,29.90
2022-12-31T14:33:03.543Z,32.20
2022-12-31T14:36:43.859Z,31.70
2022-12-31T14:40:16.026Z,33.90
2022-12-31T14:43:23.523Z,30.80
2022-12-31T14:46:30.538Z,31.80
2022-12-31T14:49:50.356Z,28.80
2022-12-31T14:53:03.885Z,26.90
2022-12-31T14:56:06.916Z,30.60
2022-12-31T14:59:26.185Z,30.30
2022-12-31T15:02:33.014Z,29.40
2022-12-31T15:05:36.791Z,31.10
2022-12-31T15:08:51.783Z,30.60
2022-12-31T15:12:05.528Z,30.10
2022-12-31T15:15:10.280Z,28.50
2022-12-31T15:18:22.126Z,32.30
2022-12-31T15:21:42.272Z,27.40
2022-12-31T15:24:45.710Z,32.30
2022-12-31T15:27:47.405Z,35.50
2022-12-31T15:30:49.997Z,31.10
2022-12-31T15:33:59.428Z,34.00
2022-12-31T15:37:02.672Z,32.20
2022-12-31T15:40:18.159Z,33.50
2022-12-31T15:43:25.498Z,29.70
2022-12-31T15:46:29.636Z,29.30
2022-12-31T15:49:36.509Z,31.70
2022-12-31T15:52:46.677Z,32.80
2022-12-31T15:55:51.040Z,34.00
2022-12-31T15:58:56.204Z,32.00
2022-12-31T16:01:58.600Z,32.10
2022-12-31T16:05:00.450Z,31.60
2022-12-31T16:08:02.328Z,29.30
2022-12-31T16:11:05.107Z,26.60
2022-12-31T16:14:07.089Z,30.90
2022-12-31T16:17:26.764Z,31.00
2022-12-31T16:20:30.547Z,31.50
2022-12-31T16:23:34.187Z,30.90
2022-12-31T16:26:43.081Z,29.60
2022-12-31T16:29:48.229Z,32.50
2022-12-31T16:32:55.736Z,31.60
2022-12-31T16:35:58.001Z,27.50
2022-12-31T16:39:18.019Z,24.70
2022-12-31T16:42:21.027Z,29.10
2022-12-31T16:48:25.666Z,24.40
2022-12-31T16:51:31.193Z,27.40
2022-12-31T16:54:34.818Z,26.30
2022-12-31T16:57:36.556Z,27.40
2022-12-31T17:00:38.171Z,28.40
2022-12-31T17:03:42.077Z,27.80
2022-12-31T17:06:44.101Z,28.40
2022-12-31T17:09:45.722Z,30.30
2022-12-31T17:13:25.641Z,31.10
2022-12-31T17:16:09.979Z,30.10
2022-12-31T17:19:31.395Z,25.40
2022-12-31T17:22:40.358Z,26.80
2022-12-31T17:25:42.000Z,29.40
2022-12-31T17:28:45.309Z,28.80
2022-12-31T17:32:03.541Z,25.30
2022-12-31T17:35:25.074Z,27.00
2022-12-31T17:38:30.485Z,28.90
2022-12-31T17:41:32.022Z,27.90
2022-12-31T17:44:34.551Z,27.80
2022-12-31T17:47:40.140Z,26.80
2022-12-31T17:50:51.889Z,26.60
2022-12-31T17:53:53.563Z,29.20
2022-12-31T17:56:55.095Z,27.50
2022-12-31T17:59:56.767Z,26.70
2022-12-31T18:02:58.402Z,32.30
2022-12-31T18:06:00.366Z,35.40
2022-12-31T18:09:02.288Z,28.70
2022-12-31T18:12:05.400Z,36.10
2022-12-31T18:15:07.673Z,37.40
2022-12-31T18:18:28.860Z,33.80
2022-12-31T18:21:32.730Z,32.40
2022-12-31T18:24:34.495Z,30.40
2022-12-31T18:27:36.087Z,29.50
2022-12-31T18:30:37.974Z,29.30
2022-12-31T18:33:39.584Z,58.80
2022-12-31T18:36:41.788Z,60.00
2022-12-31T18:39:43.380Z,60.90
2022-12-31T18:42:44.983Z,33.00
2022-12-31T18:45:47.598Z,34.60
2022-12-31T18:48:49.256Z,34.20
2022-12-31T18:51:54.216Z,33.80
2022-12-31T18:54:55.723Z,36.10
2022-12-31T18:57:57.359Z,35.30
2022-12-31T19:00:59.194Z,30.70
2022-12-31T19:04:05.075Z,33.90
2022-12-31T19:07:06.625Z,28.70
2022-12-31T19:10:09.034Z,29.80
2022-12-31T19:13:14.391Z,26.90
2022-12-31T19:16:16.061Z,28.50
2022-12-31T19:19:17.711Z,30.90
2022-12-31T19:22:19.229Z,30.10
2022-12-31T19:25:22.424Z,29.90
2022-12-31T19:28:25.209Z,40.40
2022-12-31T19:31:26.820Z,33.70
2022-12-31T19:34:28.611Z,31.90
2022-12-31T19:37:30.190Z,32.80
2022-12-31T19:40:31.785Z,33.30
2022-12-31T19:43:33.375Z,34.90
2022-12-31T19:46:34.930Z,37.30
2022-12-31T19:49:36.494Z,41.20
2022-12-31T19:52:38.115Z,36.60
2022-12-31T19:55:39.745Z,40.00
2022-12-31T19:58:41.497Z,40.30
2022-12-31T20:01:43.113Z,39.20
2022-12-31T20:04:44.788Z,38.00
2022-12-31T20:07:46.499Z,35.60
2022-12-31T20:10:48.112Z,35.50
2022-12-31T20:13:50.223Z,35.90
2022-12-31T20:16:52.743Z,33.70
2022-12-31T20:19:54.453Z,28.80
2022-12-31T20:22:57.108Z,33.80
2022-12-31T20:25:59.479Z,30.40
2022-12-31T20:29:01.080Z,34.00
2022-12-31T20:32:03.057Z,31.70
2022-12-31T20:35:04.939Z,30.80
2022-12-31T20:38:06.601Z,30.20
2022-12-31T20:41:09.633Z,28.10
2022-12-31T20:44:11.213Z,31.60
2022-12-31T20:47:12.840Z,32.60
2022-12-31T20:50:14.530Z,29.00
2022-12-31T20:53:16.121Z,25.90
2022-12-31T20:56:18.035Z,28.60
2022-12-31T20:59:19.700Z,29.50
2022-12-31T21:02:26.530Z,24.20
2022-12-31T21:05:47.062Z,25.80
2022-12-31T21:08:48.951Z,28.10
2022-12-31T21:12:09.297Z,30.70
2022-12-31T21:15:11.807Z,28.40
2022-12-31T21:18:13.348Z,32.80
2022-12-31T21:21:14.925Z,29.60
2022-12-31T21:24:23.312Z,31.40
2022-12-31T21:27:25.365Z,27.00
2022-12-31T21:30:26.965Z,30.50
2022-12-31T21:33:28.724Z,37.40
2022-12-31T21:36:30.392Z,31.80
2022-12-31T21:39:31.911Z,33.40
2022-12-31T21:42:33.482Z,37.30
2022-12-31T21:45:35.065Z,28.90
2022-12-31T21:48:36.598Z,29.30
2022-12-31T21:51:58.146Z,32.50
2022-12-31T21:55:19.520Z,35.00
2022-12-31T21:58:26.540Z,35.20
2022-12-31T22:01:47.719Z,46.80
2022-12-31T22:05:11.837Z,70.80
2022-12-31T22:08:11.313Z,35.60
2022-12-31T22:11:13.646Z,48.30
2022-12-31T22:14:15.217Z,30.80
2022-12-31T22:17:17.169Z,52.10
2022-12-31T22:20:28.260Z,57.40
2022-12-31T22:23:31.133Z,45.90
2022-12-31T22:26:32.685Z,41.10
2022-12-31T22:29:34.338Z,40.50
2022-12-31T22:32:35.980Z,37.00
2022-12-31T22:35:37.572Z,34.10
2022-12-31T22:38:39.220Z,30.20
2022-12-31T22:41:41.733Z,30.50
2022-12-31T22:44:43.315Z,31.30
2022-12-31T22:47:44.918Z,29.30
2022-12-31T22:50:53.745Z,28.10
2022-12-31T22:53:57.192Z,29.00
2022-12-31T22:56:58.759Z,27.60
2022-12-31T23:00:00.305Z,28.10
2022-12-31T23:03:01.904Z,33.60
2022-12-31T23:06:03.587Z,33.80
2022-12-31T23:09:23.834Z,34.40
2022-12-31T23:12:25.572Z,30.30
2022-12-31T23:15:45.905Z,61.50
2022-12-31T23:19:06.140Z,52.80
2022-12-31T23:22:26.059Z,48.70
2022-12-31T23:25:27.620Z,44.50
2022-12-31T23:28:29.439Z,43.10
2022-12-31T23:31:31.139Z,42.70
2022-12-31T23:34:33.830Z,35.60
2022-12-31T23:37:36.671Z,32.10
2022-12-31T23:40:38.281Z,32.10
2022-12-31T23:43:39.948Z,33.80
2022-12-31T23:46:42.491Z,34.10
2022-12-31T23:49:44.079Z,35.00
2022-12-31T23:52:45.661Z,36.60
2022-12-31T23:55:47.193Z,30.50
2022-12-31T23:58:48.794Z,33.10
